Thursday, January 18, 2018, 8:43 PM EST
Back to Local

KFVE, Northern Aroostook Regional

Location: Saint Agatha, ME, United States Lat: 47.283
Local Time: 8:43 PM EST ( 1:43 GMT) Lon: -68.3
Time Zone: US/Eastern Elev: 987 ft

Show me the last for .
Show Decoded

2018-01-18 19:53 METAR KFVE 190053Z AUTO 31007KT 5SM -SN BR OVC020 M08/M10 A2975 RMK AO2 SNB43
                 SLP090 P0000 T10781100 =
2018-01-18 19:23 METAR KFVE 190023Z AUTO 30004KT 8SM BKN018 OVC035 M08/M10 A2975 RMK AO2
                 T10781100 =
2018-01-18 18:53 METAR KFVE 182353Z AUTO 25004KT 10SM FEW018 BKN038 M08/M10 A2975 RMK AO2 SNE02
                 SLP089 P0000 60000 T10781100 11056 21078 53008 =
2018-01-18 18:45 METAR KFVE 182345Z AUTO 26005KT 10SM FEW018 BKN038 M08/M10 A2974 RMK AO2 SNE02
                 P0000 T10781100 =
2018-01-18 18:20 METAR KFVE 182320Z AUTO 26009KT 10SM BKN017 OVC038 M07/M10 A2973 RMK AO2 SNE02
                 P0000 T10721100 =
2018-01-18 17:53 METAR KFVE 182253Z AUTO 24007KT 9SM -SN FEW021 OVC037 M07/M10 A2973 RMK AO2
                 SNB2156E07B42 SLP084 P0000 T10721100 =
2018-01-18 16:53 METAR KFVE 182153Z AUTO 26007KT 10SM OVC034 M07/M10 A2973 RMK AO2 SLP083
                 T10671100 =
2018-01-18 15:53 METAR KFVE 182053Z AUTO 27006KT 10SM OVC032 M07/M11 A2972 RMK AO2 SNB15E24
                 SLP080 P0000 60000 T10671106 53008 =
2018-01-18 14:53 METAR KFVE 181953Z AUTO 26010KT 10SM FEW022 OVC033 M06/M11 A2971 RMK AO2 SLP075
                 T10611106 =
2018-01-18 13:53 METAR KFVE 181853Z AUTO 25010KT 10SM OVC030 M06/M11 A2970 RMK AO2 SLP071
                 T10611106 =
2018-01-18 13:13 METAR KFVE 181813Z AUTO 26012KT 10SM SCT022 M07/M11 A2969 RMK AO2 T10671111 =
2018-01-18 12:53 METAR KFVE 181753Z AUTO 25009KT 10SM BKN022 M06/M11 A2970 RMK AO2 SLP071
                 T10611106 11056 21094 56012 =
2018-01-18 12:38 METAR KFVE 181738Z AUTO 25014G20KT 10SM BKN022 M06/M11 A2970 RMK AO2 T10611106 =
2018-01-18 11:53 METAR KFVE 181653Z AUTO 24012KT 10SM FEW020 BKN050 M06/M11 A2970 RMK AO2 SLP073
                 T10611106 =
2018-01-18 10:53 METAR KFVE 181553Z AUTO 25016KT 10SM OVC055 M07/M11 A2972 RMK AO2 PK WND
                 24027/1536 SLP080 T10671111 =
2018-01-18 09:53 METAR KFVE 181453Z AUTO 25012KT 10SM FEW018 OVC055 M07/M11 A2973 RMK AO2 SLP084
                 T10721111 53000 =
2018-01-18 08:53 METAR KFVE 181353Z AUTO 25010KT 10SM FEW017 BKN033 BKN045 M08/M12 A2973 RMK AO2
                 SLP084 T10831117 =
2018-01-18 08:51 METAR KFVE 181351Z AUTO 25011KT 10SM FEW017 BKN031 M08/M12 A2973 RMK AO2 =
2018-01-18 07:53 METAR KFVE 181253Z AUTO 24011G16KT 10SM OVC017 M08/M12 A2973 RMK AO2 SLP085
                 T10831117 =
2018-01-18 06:53 METAR KFVE 181153Z AUTO 25007KT 10SM OVC019 M09/M12 A2974 RMK AO2 SLP087
                 T10941117 11089 21106 58008 =
2018-01-18 05:53 METAR KFVE 181053Z AUTO 23004KT 10SM OVC022 M09/M12 A2975 RMK AO2 SLP091
                 T10891117 =
2018-01-18 05:07 METAR KFVE 181007Z AUTO 22007KT 10SM BKN024 OVC085 M09/M12 A2976 RMK AO2
                 T10941117 =
2018-01-18 04:53 METAR KFVE 180953Z AUTO 23007KT 10SM FEW025 OVC085 M09/M12 A2976 RMK AO2 SLP095
                 T10941117 =
2018-01-18 04:43 METAR KFVE 180943Z AUTO 22008KT 10SM BKN025 BKN041 OVC085 M10/M12 A2976 RMK AO2
                 T11001117 =
2018-01-18 04:36 METAR KFVE 180936Z AUTO 21007KT 10SM SCT025 BKN041 OVC085 M10/M12 A2977 RMK AO2
                 T11001122 =
2018-01-18 04:23 METAR KFVE 180923Z AUTO 18003KT 10SM BKN025 BKN042 OVC060 M10/M12 A2977 RMK AO2
                 T11001117 =
2018-01-18 03:53 METAR KFVE 180853Z AUTO 18004KT 10SM SCT026 OVC050 M10/M12 A2979 RMK AO2 SLP104
                 T11001117 58020 =
2018-01-18 02:53 METAR KFVE 180753Z AUTO 19004KT 10SM OVC095 M11/M12 A2982 RMK AO2 SLP114
                 T11061117 =
2018-01-18 01:53 METAR KFVE 180653Z AUTO 18004KT 10SM SCT036 SCT060 OVC090 M10/M11 A2984 RMK AO2
                 SLP122 T11001111 =
2018-01-18 01:06 METAR KFVE 180606Z AUTO 18005KT 10SM SCT021 OVC100 M10/M11 A2985 RMK AO2
                 T11001106 =
2018-01-18 00:53 METAR KFVE 180553Z AUTO 17005KT 10SM BKN021 OVC100 M09/M11 A2985 RMK AO2 SLP125
                 I6001 T10941106 11094 21111 58028 =
2018-01-17 23:53 METAR KFVE 180453Z AUTO 16005KT 10SM BKN025 OVC110 M09/M11 A2988 RMK AO2 SLP138
                 T10941106 410721167 =
2018-01-17 23:00 METAR KFVE 180400Z AUTO 15005KT 10SM BKN028 M10/M11 A2991 RMK AO2 T11001111 =
2018-01-17 22:53 METAR KFVE 180353Z AUTO 15004KT 10SM SCT029 M10/M11 A2992 RMK AO2 SLP149 I1000
                 T11001111 =
2018-01-17 21:53 METAR KFVE 180253Z AUTO 15006KT 10SM BKN060 M09/M11 A2993 RMK AO2 SLP155 I3001
                 T10941106 57030 =
2018-01-17 20:53 METAR KFVE 180153Z AUTO 17004KT 10SM BKN060 M09/M11 A2996 RMK AO2 SLP165
                 T10941106 =

Support USWX by starting your Amazon purchase here.